Etusivu
METAR-TAF:

METAR-TAF

Lentoasemat :

Bella Coola, Brittiläinen Kolumbia, Kanada

Leveyspiiri: 52-23N, Pituuspiiri: 126-35W, korkeus merenpinnasta: 35 m

Tämänhetkinen sää

Tämä raportti tehtiin 40 minuuttia sitten, kello 16.00 UTC
Tuuli 3 kn lännestä/luoteesta, vaihdellen lounaan ja luoteen välillä
Lämpötila 10°C
Kosteus 87%
Ilmanpaine 1024 hPa
Näkyvyys: 11.3 km
Muutamia pilviä 1200 ft:n korkeudessa
Muutamia pilviä 2500 ft:n korkeudessa
Muutamia pilviä 4200 ft:n korkeudessa
Hajanaisia pilviä 5200 ft:n korkeudessa
Hajonneita pilviä 7800 ft:n korkeudessa

METAR: CYBD 031600Z 30003KT 220V320 7SM FEW012 FEW025 FEW042 SCT052 BKN078 10/08 A3024 RMK SF1SC1SC1SC1AC4 SF TR SLP242

Aika: 09:40 (16:40 UTC)


TAF: puuttuu

Säähavainnot ja -ennusteet yli 4000 lentoasemalta (METAR- ja TAF-raportit).

Käytössä olevat sääasemat on merkitty karttaan keltaisilla ja punaisilla pisteillä.

Aseta hiiri pisteen päälle nähdäksesi sääaseman nimen.

Klikkaa sitten nähdäksesi säähavainnot ja -ennusteet.

Kartan vaihtaminen: klikkaa mustalla rastilla varustettuja vihreitä pisteitä, niin voit zoomata sisään; viivalla varustettua vihreää pistettä, niin voit zoomata ulos tai vihreitä nuolia, niin pääset viereisille kartoille.


METAR-TAF: